Time;durP1;ratioP1;P1;durP2;ratioP2;P2;SDS_P1;SDS_P2;PMS_P1;PMS_P2;Temp;Humidity;BMP_temperature;BMP_pressure;BME280_temperature;BME280_humidity;BME280_pressure;Samples;Min_cycle;Max_cycle;Signal;HPM_P1;HPM_P2
2022/02/28 00:00:28;;;;;;;36.60;17.85;;;-3.00;99.90;;;;;;5114721;27;20026;-68
2022/02/28 00:02:56;;;;;;;38.97;19.90;;;-3.10;99.90;;;;;;5114668;28;20030;-69
2022/02/28 00:05:22;;;;;;;37.08;16.52;;;-3.10;99.90;;;;;;5113310;28;20020;-71
2022/02/28 00:07:49;;;;;;;40.47;17.63;;;-3.20;99.90;;;;;;5114405;27;20030;-71
2022/02/28 00:10:16;;;;;;;40.47;19.20;;;-3.20;99.90;;;;;;5113130;28;20128;-71
2022/02/28 00:12:43;;;;;;;36.55;18.63;;;-3.20;99.90;;;;;;5114341;28;20077;-71
2022/02/28 00:15:11;;;;;;;38.85;18.67;;;-3.20;99.90;;;;;;5114376;28;20047;-71
2022/02/28 00:17:38;;;;;;;35.47;14.77;;;-3.30;99.90;;;;;;5114235;28;20136;-71
2022/02/28 00:20:06;;;;;;;35.40;18.38;;;-3.30;99.90;;;;;;5113048;28;20028;-71
2022/02/28 00:22:32;;;;;;;37.92;17.80;;;-3.30;99.90;;;;;;5114270;28;20094;-71
2022/02/28 00:24:58;;;;;;;37.38;17.58;;;-3.40;99.90;;;;;;5113003;28;20020;-71
2022/02/28 00:27:24;;;;;;;35.67;18.92;;;-3.40;99.90;;;;;;5114177;28;20034;-71
2022/02/28 00:29:49;;;;;;;41.53;19.00;;;-3.40;99.90;;;;;;5113895;28;20516;-69
2022/02/28 00:32:15;;;;;;;42.20;18.67;;;-3.40;99.90;;;;;;5114078;28;20028;-70
2022/02/28 00:34:40;;;;;;;37.88;18.23;;;-3.40;99.90;;;;;;5112743;28;20020;-69
2022/02/28 00:37:06;;;;;;;39.97;17.75;;;-3.40;99.90;;;;;;5114008;28;20016;-71
2022/02/28 00:39:31;;;;;;;37.60;17.60;;;-3.50;99.90;;;;;;5113868;28;20381;-68
2022/02/28 00:41:57;;;;;;;37.58;18.15;;;-3.50;99.90;;;;;;5113920;28;20055;-69
2022/02/28 00:44:23;;;;;;;29.00;14.40;;;-3.50;99.90;;;;;;5113831;28;20372;-68
2022/02/28 00:46:48;;;;;;;37.30;17.60;;;-3.50;99.90;;;;;;5113980;28;20028;-69
2022/02/28 00:49:14;;;;;;;38.53;16.13;;;-3.50;99.90;;;;;;5113576;28;20074;-68
2022/02/28 00:51:39;;;;;;;34.95;18.23;;;-3.60;99.90;;;;;;5113565;28;20481;-68
2022/02/28 00:54:05;;;;;;;37.53;17.92;;;-3.60;99.90;;;;;;5113742;28;20063;-71
2022/02/28 00:56:31;;;;;;;32.28;17.05;;;-3.60;99.90;;;;;;5113783;28;20023;-70
2022/02/28 00:58:56;;;;;;;36.80;17.85;;;-3.60;99.90;;;;;;5112358;28;20020;-68
2022/02/28 01:01:22;;;;;;;43.85;18.38;;;-3.50;99.90;;;;;;5113629;28;20031;-69
2022/02/28 01:03:47;;;;;;;40.40;19.95;;;-3.60;99.90;;;;;;5113518;28;20031;-68
2022/02/28 01:06:13;;;;;;;45.08;19.48;;;-3.60;99.90;;;;;;5112287;28;20023;-69
2022/02/28 01:08:39;;;;;;;39.03;18.75;;;-3.50;99.90;;;;;;5113466;28;20019;-68
2022/02/28 01:11:05;;;;;;;33.83;18.25;;;-3.60;99.90;;;;;;5112103;28;20463;-69
2022/02/28 01:13:31;;;;;;;40.28;18.02;;;-3.70;99.90;;;;;;5113344;28;20059;-68
2022/02/28 01:15:56;;;;;;;44.08;19.27;;;-3.70;99.90;;;;;;5113554;28;20101;-69
2022/02/28 01:18:22;;;;;;;32.15;17.17;;;-3.70;99.90;;;;;;5113349;28;20031;-68
2022/02/28 01:20:50;;;;;;;40.38;18.98;;;-3.70;99.90;;;;;;5113498;28;20070;-69
2022/02/28 01:23:17;;;;;;;34.78;17.65;;;-3.70;99.90;;;;;;5113357;28;20031;-68
2022/02/28 01:25:43;;;;;;;41.20;19.38;;;-3.80;99.90;;;;;;5113303;28;20422;-68
2022/02/28 01:28:08;;;;;;;37.30;17.13;;;-3.80;99.90;;;;;;5113304;28;20024;-68
2022/02/28 01:30:34;;;;;;;33.75;15.82;;;-3.80;99.90;;;;;;5113099;28;20062;-69
2022/02/28 01:32:59;;;;;;;38.88;18.48;;;-3.80;99.90;;;;;;5113231;28;20023;-68
2022/02/28 01:35:25;;;;;;;37.72;17.15;;;-3.80;99.90;;;;;;5113023;28;20020;-70
2022/02/28 01:37:51;;;;;;;32.30;17.10;;;-3.80;99.90;;;;;;5113213;28;20077;-68
2022/02/28 01:40:16;;;;;;;32.08;15.95;;;-3.90;99.90;;;;;;5113612;28;20103;-69
2022/02/28 01:42:43;;;;;;;34.55;17.00;;;-3.90;99.90;;;;;;5117281;28;20020;-68
2022/02/28 01:45:11;;;;;;;43.25;18.33;;;-3.90;99.90;;;;;;5117390;28;20028;-68
2022/02/28 01:47:37;;;;;;;36.35;16.35;;;-3.90;99.90;;;;;;5117144;28;20107;-68
2022/02/28 01:50:04;;;;;;;37.63;15.95;;;-3.90;99.90;;;;;;5115955;28;20047;-71
2022/02/28 01:52:29;;;;;;;39.95;18.83;;;-3.90;99.90;;;;;;5117171;28;20012;-71
2022/02/28 01:54:55;;;;;;;32.40;16.60;;;-4.00;99.90;;;;;;5117350;28;20168;-68
2022/02/28 01:57:20;;;;;;;31.10;16.83;;;-4.00;99.90;;;;;;5117087;28;20047;-68
2022/02/28 01:59:47;;;;;;;28.90;15.15;;;-4.00;99.90;;;;;;5115757;28;20030;-68
2022/02/28 02:02:13;;;;;;;34.35;15.70;;;-4.00;99.90;;;;;;5115683;28;20038;-68
2022/02/28 02:04:38;;;;;;;31.13;14.93;;;-4.00;99.90;;;;;;5116927;28;20399;-69
2022/02/28 02:07:04;;;;;;;28.77;16.33;;;-4.00;99.90;;;;;;5116991;28;20064;-69
2022/02/28 02:09:33;;;;;;;33.45;18.58;;;-4.00;99.90;;;;;;5115476;28;20104;-70
2022/02/28 02:11:59;;;;;;;32.33;15.30;;;-4.10;99.90;;;;;;5116807;28;20043;-71
2022/02/28 02:14:25;;;;;;;33.03;16.88;;;-4.10;99.90;;;;;;5116740;28;20023;-70
2022/02/28 02:16:50;;;;;;;30.35;14.57;;;-4.20;99.90;;;;;;5116750;28;20055;-71
2022/02/28 02:19:16;;;;;;;26.70;13.32;;;-4.20;99.90;;;;;;5116667;28;20023;-68
2022/02/28 02:21:41;;;;;;;30.38;16.38;;;-4.20;99.90;;;;;;5116506;28;20480;-69
2022/02/28 02:24:07;;;;;;;31.63;14.50;;;-4.20;99.90;;;;;;5116537;28;20473;-68
2022/02/28 02:26:32;;;;;;;30.67;15.05;;;-4.20;99.90;;;;;;5116674;28;20473;-68
2022/02/28 02:28:58;;;;;;;31.23;16.27;;;-4.10;99.90;;;;;;5115197;28;20426;-68
2022/02/28 02:31:24;;;;;;;25.70;13.52;;;-4.20;99.90;;;;;;5116422;28;20028;-70
2022/02/28 02:33:50;;;;;;;34.80;16.05;;;-4.20;99.90;;;;;;5116344;28;20404;-70
2022/02/28 02:36:18;;;;;;;24.27;11.80;;;-4.20;99.90;;;;;;5116362;28;20020;-69
2022/02/28 02:38:44;;;;;;;30.05;13.68;;;-4.20;99.90;;;;;;5115011;28;20027;-71
2022/02/28 02:41:10;;;;;;;37.90;17.05;;;-4.20;99.90;;;;;;5116272;28;20385;-71
2022/02/28 02:43:36;;;;;;;22.95;11.48;;;-4.20;99.90;;;;;;5116089;27;20034;-71
2022/02/28 02:46:03;;;;;;;28.55;15.13;;;-4.10;99.90;;;;;;5116191;28;20028;-71
2022/02/28 02:48:28;;;;;;;29.00;13.50;;;-4.10;99.90;;;;;;5114559;28;20024;-71
2022/02/28 02:50:55;;;;;;;29.95;13.77;;;-4.10;99.90;;;;;;5116045;28;20035;-70
2022/02/28 02:53:21;;;;;;;29.17;15.93;;;-4.10;99.90;;;;;;5113364;28;20020;-69
2022/02/28 02:55:47;;;;;;;24.98;15.00;;;-4.10;99.90;;;;;;5115921;28;20027;-70
2022/02/28 02:58:14;;;;;;;30.27;14.82;;;-4.20;99.90;;;;;;5115942;28;20023;-71
2022/02/28 03:00:42;;;;;;;25.45;13.52;;;-4.20;99.90;;;;;;5116104;28;20019;-67
2022/02/28 03:03:14;;;;;;;27.02;14.32;;;-4.20;99.90;;;;;;5115759;28;20089;-68
2022/02/28 03:05:40;;;;;;;28.38;13.98;;;-4.20;99.90;;;;;;5115740;28;20069;-67
2022/02/28 03:08:05;;;;;;;26.95;13.32;;;-4.20;99.90;;;;;;5114207;28;20036;-67
2022/02/28 03:10:31;;;;;;;30.50;14.05;;;-4.30;99.90;;;;;;5114390;28;20051;-68
2022/02/28 03:12:57;;;;;;;24.77;12.77;;;-4.30;99.90;;;;;;5114351;28;20499;-70
2022/02/28 03:15:23;;;;;;;34.65;14.48;;;-4.30;99.90;;;;;;5115597;28;20423;-71
2022/02/28 03:17:48;;;;;;;30.42;13.32;;;-4.30;99.90;;;;;;5115386;28;20023;-71
2022/02/28 03:20:14;;;;;;;31.00;14.82;;;-4.30;99.90;;;;;;5115461;28;20043;-71
2022/02/28 03:22:40;;;;;;;18.92;9.77;;;-4.30;99.90;;;;;;5115400;28;20043;-71
2022/02/28 03:25:06;;;;;;;23.25;13.90;;;-4.40;99.90;;;;;;5114132;28;20027;-71
2022/02/28 03:27:32;;;;;;;26.70;14.43;;;-4.40;99.90;;;;;;5115271;28;20034;-68
2022/02/28 03:29:58;;;;;;;24.98;13.77;;;-4.40;99.90;;;;;;5113936;28;20122;-69
2022/02/28 03:32:23;;;;;;;24.95;11.88;;;-4.40;99.90;;;;;;5115212;28;20103;-68
2022/02/28 03:34:49;;;;;;;22.30;13.02;;;-4.40;99.90;;;;;;5115256;28;20020;-69
2022/02/28 03:37:14;;;;;;;22.02;12.85;;;-4.40;99.90;;;;;;5115183;28;20031;-69
2022/02/28 03:39:40;;;;;;;26.05;12.35;;;-4.50;99.90;;;;;;5114958;28;20073;-69
2022/02/28 03:42:05;;;;;;;28.10;15.18;;;-4.40;99.90;;;;;;5115103;28;20023;-70
2022/02/28 03:44:31;;;;;;;27.77;15.00;;;-4.40;99.90;;;;;;5113954;28;20051;-70
2022/02/28 03:46:57;;;;;;;25.30;14.48;;;-4.50;99.90;;;;;;5115073;28;20027;-68
2022/02/28 03:49:23;;;;;;;21.85;12.75;;;-4.50;99.90;;;;;;5114804;28;20054;-67
2022/02/28 03:51:48;;;;;;;21.33;10.88;;;-4.50;99.90;;;;;;5113440;28;20027;-67
2022/02/28 03:54:14;;;;;;;25.02;13.38;;;-4.50;99.90;;;;;;5114867;28;20020;-70
2022/02/28 03:56:41;;;;;;;28.50;13.18;;;-4.50;99.90;;;;;;5113923;28;20028;-70
2022/02/28 03:59:08;;;;;;;29.38;12.15;;;-4.50;99.90;;;;;;5113466;28;20077;-67
2022/02/28 04:01:35;;;;;;;22.83;10.68;;;-4.50;99.90;;;;;;5114688;28;20022;-67
2022/02/28 04:04:01;;;;;;;26.65;13.38;;;-4.50;99.90;;;;;;5114009;28;20035;-70
2022/02/28 04:06:29;;;;;;;25.13;13.45;;;-4.50;99.90;;;;;;5113438;28;20373;-68
2022/02/28 04:08:55;;;;;;;27.17;12.68;;;-4.60;99.90;;;;;;5114560;28;20064;-67
2022/02/28 04:11:20;;;;;;;28.40;14.45;;;-4.60;99.90;;;;;;5114443;28;20110;-68
2022/02/28 04:13:46;;;;;;;26.38;14.13;;;-4.60;99.90;;;;;;5114271;28;20221;-68
2022/02/28 04:16:11;;;;;;;29.85;14.40;;;-4.60;99.90;;;;;;5113188;28;20016;-72
2022/02/28 04:18:37;;;;;;;24.20;13.50;;;-4.70;99.90;;;;;;5113137;28;20027;-71
2022/02/28 04:21:03;;;;;;;20.88;11.93;;;-4.70;99.90;;;;;;5113989;28;20039;-71
2022/02/28 04:23:28;;;;;;;28.73;14.43;;;-4.70;99.90;;;;;;5113779;28;20039;-71
2022/02/28 04:25:55;;;;;;;28.13;13.80;;;-4.70;99.90;;;;;;5114098;28;20104;-71
2022/02/28 04:28:20;;;;;;;18.90;9.87;;;-4.70;99.90;;;;;;5113927;28;20027;-71
2022/02/28 04:30:46;;;;;;;25.80;13.93;;;-4.80;99.90;;;;;;5112687;28;20035;-71
2022/02/28 04:33:12;;;;;;;23.83;11.98;;;-4.80;99.90;;;;;;5113835;28;20110;-71
2022/02/28 04:35:37;;;;;;;24.97;13.53;;;-4.80;99.90;;;;;;5113733;28;20038;-70
2022/02/28 04:38:05;;;;;;;30.00;11.23;;;-4.80;99.90;;;;;;5113980;28;20464;-68
2022/02/28 04:40:34;;;;;;;26.75;12.80;;;-4.80;99.90;;;;;;5114097;28;20027;-67
2022/02/28 04:43:00;;;;;;;29.92;14.02;;;-4.80;99.90;;;;;;5113543;28;20023;-70
2022/02/28 04:45:25;;;;;;;21.92;12.73;;;-4.80;99.90;;;;;;5112079;28;20020;-71
2022/02/28 04:47:51;;;;;;;22.55;12.63;;;-4.90;99.90;;;;;;5113146;28;20475;-69
2022/02/28 04:50:18;;;;;;;26.05;14.27;;;-4.90;99.90;;;;;;5113739;28;20076;-70
2022/02/28 04:52:44;;;;;;;25.92;12.07;;;-4.90;99.90;;;;;;5113974;28;20082;-71
2022/02/28 04:55:10;;;;;;;28.73;14.35;;;-4.90;99.90;;;;;;5112505;28;20441;-70
2022/02/28 04:57:37;;;;;;;24.83;12.63;;;-5.00;99.90;;;;;;5113620;28;20098;-67
2022/02/28 05:00:04;;;;;;;29.55;11.25;;;-5.00;99.90;;;;;;5113740;28;20027;-71
2022/02/28 05:02:30;;;;;;;25.50;11.10;;;-5.00;99.90;;;;;;5112117;28;20091;-71
2022/02/28 05:04:55;;;;;;;26.33;14.47;;;-5.00;99.90;;;;;;5111578;28;20469;-71
2022/02/28 05:07:21;;;;;;;32.13;13.47;;;-5.00;99.90;;;;;;5111447;28;20130;-67
2022/02/28 05:09:47;;;;;;;25.02;13.38;;;-5.00;99.90;;;;;;5110131;28;20020;-68
2022/02/28 05:12:12;;;;;;;20.67;12.90;;;-5.00;99.90;;;;;;5111380;28;20039;-67
2022/02/28 05:14:38;;;;;;;20.90;11.20;;;-5.00;99.90;;;;;;5111065;28;20114;-71
2022/02/28 05:17:04;;;;;;;28.87;14.50;;;-5.00;99.90;;;;;;5110387;28;20115;-71
2022/02/28 05:19:29;;;;;;;26.02;13.07;;;-5.00;99.90;;;;;;5113327;28;20027;-71
2022/02/28 05:21:55;;;;;;;30.23;11.40;;;-5.00;99.90;;;;;;5113434;28;20068;-71
2022/02/28 05:24:20;;;;;;;27.17;13.70;;;-5.00;99.90;;;;;;5112130;28;20023;-71
2022/02/28 05:26:46;;;;;;;25.23;13.45;;;-5.00;99.90;;;;;;5113422;28;20070;-71
2022/02/28 05:29:12;;;;;;;30.08;13.23;;;-5.00;99.90;;;;;;5113326;28;20093;-67
2022/02/28 05:31:37;;;;;;;27.27;14.55;;;-5.10;99.90;;;;;;5113246;28;20496;-68
2022/02/28 05:34:03;;;;;;;25.30;13.23;;;-5.10;99.90;;;;;;5113330;28;20107;-70
2022/02/28 05:36:28;;;;;;;30.13;15.43;;;-5.10;99.90;;;;;;5112175;28;20582;-71
2022/02/28 05:38:54;;;;;;;29.07;13.77;;;-5.20;99.90;;;;;;5111983;28;20369;-67
2022/02/28 05:41:19;;;;;;;27.05;14.02;;;-5.20;99.90;;;;;;5113215;28;20020;-70
2022/02/28 05:43:45;;;;;;;36.10;14.10;;;-5.20;99.90;;;;;;5111817;28;20137;-67
2022/02/28 05:46:11;;;;;;;31.20;14.45;;;-5.20;99.90;;;;;;5113241;28;20023;-70
2022/02/28 05:48:37;;;;;;;27.80;13.70;;;-5.20;99.90;;;;;;5112962;28;20015;-67
2022/02/28 05:51:03;;;;;;;31.27;13.75;;;-5.20;99.90;;;;;;5113208;28;20125;-70
2022/02/28 05:53:29;;;;;;;23.48;11.75;;;-5.20;99.90;;;;;;5113137;28;20111;-67
2022/02/28 05:55:54;;;;;;;29.20;14.15;;;-5.10;99.90;;;;;;5113169;28;20020;-70
2022/02/28 05:58:20;;;;;;;28.48;12.85;;;-5.10;99.90;;;;;;5113070;28;20024;-67
2022/02/28 06:00:46;;;;;;;23.87;14.10;;;-5.10;99.90;;;;;;5113168;28;20389;-70
2022/02/28 06:03:11;;;;;;;34.78;15.32;;;-5.10;99.90;;;;;;5112976;28;20073;-70
2022/02/28 06:05:37;;;;;;;31.23;17.03;;;-5.10;99.90;;;;;;5113018;28;20020;-70
2022/02/28 06:08:03;;;;;;;33.40;16.55;;;-5.00;99.90;;;;;;5101248;28;20444;-70
2022/02/28 06:10:28;;;;;;;28.65;16.15;;;-4.90;99.90;;;;;;5092664;28;20040;-70
2022/02/28 06:12:54;;;;;;;30.63;14.87;;;-4.90;99.90;;;;;;5091311;28;20020;-67
2022/02/28 06:15:19;;;;;;;33.33;15.77;;;-4.90;99.90;;;;;;5096722;28;20017;-71
2022/02/28 06:17:45;;;;;;;22.80;12.67;;;-4.80;99.90;;;;;;5107691;27;20410;-71
2022/02/28 06:20:11;;;;;;;30.70;17.33;;;-4.80;99.90;;;;;;5090344;28;20016;-71
2022/02/28 06:22:37;;;;;;;27.63;14.98;;;-4.70;99.90;;;;;;5092070;27;20516;-70
2022/02/28 06:25:06;;;;;;;30.77;15.43;;;-4.70;99.90;;;;;;5091083;28;20056;-68
2022/02/28 06:27:31;;;;;;;24.58;11.85;;;-4.60;99.90;;;;;;5093791;27;20454;-67
2022/02/28 06:29:57;;;;;;;36.38;16.58;;;-4.60;99.90;;;;;;5095458;28;20055;-68
2022/02/28 06:32:22;;;;;;;36.38;17.52;;;-4.50;99.90;;;;;;5094795;27;20425;-67
2022/02/28 06:34:48;;;;;;;35.03;16.13;;;-4.40;99.90;;;;;;5095301;28;20065;-68
2022/02/28 06:37:14;;;;;;;28.17;13.32;;;-4.40;99.90;;;;;;5094821;27;20036;-70
2022/02/28 06:39:39;;;;;;;29.02;14.63;;;-4.40;99.90;;;;;;5093381;28;20066;-68
2022/02/28 06:42:05;;;;;;;27.60;14.52;;;-4.40;99.90;;;;;;5094840;27;20032;-72
2022/02/28 06:44:32;;;;;;;27.48;13.40;;;-4.30;99.90;;;;;;5111156;28;20024;-72
2022/02/28 06:46:58;;;;;;;25.55;16.88;;;-4.20;99.90;;;;;;5116204;27;20036;-72
2022/02/28 06:49:24;;;;;;;27.02;14.10;;;-4.20;99.90;;;;;;5115918;28;20058;-72
2022/02/28 06:51:49;;;;;;;25.50;11.43;;;-4.20;99.90;;;;;;5114656;28;20032;-67
2022/02/28 06:54:16;;;;;;;26.30;12.80;;;-4.10;99.90;;;;;;5115804;28;20028;-69
2022/02/28 06:56:42;;;;;;;28.73;13.43;;;-4.00;99.90;;;;;;5115893;28;20564;-66
2022/02/28 06:59:08;;;;;;;28.05;14.55;;;-3.80;99.90;;;;;;5114606;28;20051;-66
2022/02/28 07:01:36;;;;;;;24.42;12.82;;;-3.60;99.90;;;;;;5115817;28;20042;-67
2022/02/28 07:04:04;;;;;;;26.90;13.98;;;-3.40;99.90;;;;;;5115821;28;20376;-67
2022/02/28 07:06:31;;;;;;;28.23;14.48;;;-3.30;99.90;;;;;;5115634;28;20385;-67
2022/02/28 07:08:57;;;;;;;46.40;22.38;;;-3.20;99.90;;;;;;5115641;28;20095;-67
2022/02/28 07:11:22;;;;;;;21.05;12.18;;;-3.10;99.90;;;;;;5115624;28;20119;-67
2022/02/28 07:13:48;;;;;;;21.75;11.80;;;-3.10;99.90;;;;;;5115516;28;20028;-69
2022/02/28 07:16:17;;;;;;;24.85;14.25;;;-2.90;99.90;;;;;;5098462;28;20069;-69
2022/02/28 07:18:43;;;;;;;27.05;14.43;;;-2.80;99.90;;;;;;5095168;28;20019;-72
2022/02/28 07:21:08;;;;;;;24.17;12.98;;;-2.60;99.90;;;;;;5095097;28;20386;-72
2022/02/28 07:23:34;;;;;;;32.13;16.40;;;-2.40;99.90;;;;;;5093721;28;20019;-69
2022/02/28 07:25:59;;;;;;;23.10;12.15;;;-2.30;99.90;;;;;;5093755;28;20016;-70
2022/02/28 07:28:25;;;;;;;18.45;11.10;;;-2.20;99.90;;;;;;5094825;28;20020;-69
2022/02/28 07:30:51;;;;;;;23.52;12.98;;;-2.20;99.90;;;;;;5093548;28;20036;-73
2022/02/28 07:33:16;;;;;;;18.90;11.75;;;-2.10;99.90;;;;;;5094834;28;20153;-69
2022/02/28 07:35:42;;;;;;;20.55;10.82;;;-2.00;99.90;;;;;;5115118;28;20015;-72
2022/02/28 07:38:08;;;;;;;19.45;11.23;;;-2.00;99.90;;;;;;5114473;28;20043;-72
2022/02/28 07:40:34;;;;;;;16.27;10.15;;;-2.20;99.90;;;;;;5115278;28;20031;-70
2022/02/28 07:42:59;;;;;;;15.07;9.25;;;-2.10;99.90;;;;;;5115069;28;20024;-72
2022/02/28 07:45:25;;;;;;;27.00;12.77;;;-2.00;99.90;;;;;;5115023;28;20032;-72
2022/02/28 07:47:50;;;;;;;23.33;11.32;;;-1.90;99.90;;;;;;5114825;28;20062;-72
2022/02/28 07:50:16;;;;;;;20.23;9.07;;;-1.80;99.90;;;;;;5115027;28;20531;-73
2022/02/28 07:52:42;;;;;;;21.80;11.30;;;-1.80;95.40;;;;;;5113841;28;20056;-73
2022/02/28 07:55:08;;;;;;;15.43;8.68;;;-1.70;96.40;;;;;;5113679;28;20019;-73
2022/02/28 07:57:33;;;;;;;20.77;10.15;;;-1.80;91.40;;;;;;5114937;28;20095;-73
2022/02/28 07:59:59;;;;;;;23.30;10.98;;;-1.70;94.10;;;;;;5114838;27;20024;-72
2022/02/28 08:02:25;;;;;;;15.65;8.75;;;-1.70;93.70;;;;;;5114695;28;20054;-71
2022/02/28 08:04:50;;;;;;;20.08;12.43;;;-1.70;92.60;;;;;;5114781;28;20027;-72
2022/02/28 08:07:16;;;;;;;24.25;11.82;;;-1.50;97.10;;;;;;5113557;28;20015;-73
2022/02/28 08:09:41;;;;;;;16.70;9.93;;;-1.30;95.00;;;;;;5114660;28;20020;-72
2022/02/28 08:12:07;;;;;;;14.82;9.48;;;-1.30;89.50;;;;;;5114730;28;20043;-72
2022/02/28 08:14:33;;;;;;;19.73;9.93;;;-1.40;86.90;;;;;;5113257;28;20027;-70
2022/02/28 08:16:58;;;;;;;19.05;9.77;;;-1.20;89.30;;;;;;5114273;28;20408;-73
2022/02/28 08:19:24;;;;;;;18.95;11.60;;;-1.20;87.00;;;;;;5114719;28;20465;-73
2022/02/28 08:21:49;;;;;;;22.83;10.93;;;-1.10;89.20;;;;;;5113344;28;20429;-72
2022/02/28 08:24:17;;;;;;;20.98;10.82;;;-1.00;87.80;;;;;;5113386;28;20457;-70
2022/02/28 08:26:43;;;;;;;29.23;14.23;;;-1.20;86.60;;;;;;5114597;28;20015;-73
2022/02/28 08:29:09;;;;;;;19.95;9.95;;;-1.20;88.30;;;;;;5114656;28;20027;-70
2022/02/28 08:31:34;;;;;;;18.63;10.98;;;-1.20;87.50;;;;;;5114454;28;20042;-71
2022/02/28 08:34:00;;;;;;;19.48;10.52;;;-1.20;88.20;;;;;;5114411;28;20073;-71
2022/02/28 08:36:26;;;;;;;13.52;7.53;;;-1.20;87.10;;;;;;5114392;28;20023;-71
2022/02/28 08:38:51;;;;;;;19.95;10.55;;;-1.30;88.80;;;;;;5113329;28;20497;-73
2022/02/28 08:41:17;;;;;;;12.32;8.68;;;-1.20;89.80;;;;;;5111894;28;20389;-73
2022/02/28 08:43:43;;;;;;;17.50;10.20;;;-1.00;88.00;;;;;;5111859;28;20024;-71
2022/02/28 08:46:08;;;;;;;16.17;9.52;;;-0.70;88.50;;;;;;5113476;28;20023;-74
2022/02/28 08:48:37;;;;;;;18.00;10.68;;;-0.70;84.40;;;;;;5113212;28;20072;-71
2022/02/28 08:51:03;;;;;;;17.75;10.20;;;-0.70;83.10;;;;;;5112073;28;20550;-73
2022/02/28 08:53:29;;;;;;;17.85;10.05;;;-0.70;84.50;;;;;;5113555;28;20051;-70
2022/02/28 08:55:54;;;;;;;16.73;9.32;;;-0.50;84.70;;;;;;5114008;28;20377;-72
2022/02/28 08:58:23;;;;;;;13.07;7.47;;;-0.60;81.50;;;;;;5112759;28;20020;-70
2022/02/28 09:00:49;;;;;;;18.40;8.63;;;-0.70;78.50;;;;;;5113920;28;20042;-74
2022/02/28 09:03:14;;;;;;;12.80;8.77;;;-0.70;76.10;;;;;;5113797;28;20027;-72
2022/02/28 09:05:40;;;;;;;12.15;7.45;;;-0.80;76.30;;;;;;5114068;28;20465;-73
2022/02/28 09:08:05;;;;;;;9.07;5.40;;;-0.90;74.90;;;;;;5112639;28;20026;-73
2022/02/28 09:10:31;;;;;;;13.25;7.75;;;-1.00;72.90;;;;;;5113929;28;20081;-70
2022/02/28 09:12:57;;;;;;;11.98;6.68;;;-0.80;74.40;;;;;;5113799;28;20446;-72
2022/02/28 09:15:22;;;;;;;11.90;6.00;;;-0.70;74.20;;;;;;5112520;28;20055;-73
2022/02/28 09:17:48;;;;;;;13.18;7.85;;;-0.50;72.40;;;;;;5112473;28;20035;-71
2022/02/28 09:20:14;;;;;;;9.50;5.75;;;-0.30;70.60;;;;;;5112554;28;20016;-71
2022/02/28 09:22:41;;;;;;;14.48;7.57;;;-0.30;70.90;;;;;;5113795;28;20024;-71
2022/02/28 09:25:07;;;;;;;20.88;7.72;;;-0.20;71.50;;;;;;5113752;28;20059;-72
2022/02/28 09:27:33;;;;;;;13.60;7.38;;;0.00;72.80;;;;;;5113711;28;20028;-70
2022/02/28 09:29:59;;;;;;;12.43;7.28;;;0.00;72.10;;;;;;5113749;28;20473;-71
2022/02/28 09:32:24;;;;;;;7.97;5.93;;;0.00;70.20;;;;;;5113656;28;20062;-72
2022/02/28 09:34:50;;;;;;;15.70;6.13;;;0.20;70.30;;;;;;5113744;28;20031;-71
2022/02/28 09:37:16;;;;;;;10.27;6.03;;;0.30;69.20;;;;;;5113641;28;20027;-74
2022/02/28 09:39:42;;;;;;;11.20;6.72;;;0.40;69.50;;;;;;5113632;28;20060;-71
2022/02/28 09:42:07;;;;;;;9.13;5.30;;;0.10;68.50;;;;;;5113670;28;20509;-71
2022/02/28 09:44:34;;;;;;;11.98;6.35;;;0.10;68.50;;;;;;5113684;28;20069;-74
2022/02/28 09:47:00;;;;;;;10.30;5.78;;;0.00;67.90;;;;;;5113650;28;20099;-73
2022/02/28 09:49:26;;;;;;;9.63;5.15;;;0.00;66.10;;;;;;5113379;28;20051;-71
2022/02/28 09:51:52;;;;;;;12.98;7.60;;;-0.10;65.70;;;;;;5113553;28;20038;-73
2022/02/28 09:54:19;;;;;;;16.40;7.55;;;0.00;66.60;;;;;;5113793;28;20055;-71
2022/02/28 09:56:44;;;;;;;11.13;6.43;;;0.20;67.30;;;;;;5113554;28;20020;-71
2022/02/28 09:59:10;;;;;;;20.80;9.43;;;0.40;67.20;;;;;;5113316;28;20073;-71
2022/02/28 10:01:36;;;;;;;9.77;5.93;;;0.60;67.10;;;;;;5114337;28;20031;-73
2022/02/28 10:04:02;;;;;;;17.50;8.35;;;0.90;66.90;;;;;;5117369;28;20027;-71
2022/02/28 10:06:27;;;;;;;9.38;5.55;;;1.00;65.10;;;;;;5117193;28;20366;-74
2022/02/28 10:09:00;;;;;;;8.95;5.05;;;1.20;63.70;;;;;;5115895;28;20027;-73
2022/02/28 10:11:25;;;;;;;8.85;5.05;;;1.30;64.10;;;;;;5117150;28;20115;-71
2022/02/28 10:13:53;;;;;;;9.73;4.85;;;1.40;63.30;;;;;;5117043;28;20512;-71
2022/02/28 10:16:31;;;;;;;7.32;4.68;;;1.60;64.40;;;;;;5115720;28;20055;-71
2022/02/28 10:18:58;;;;;;;3.53;3.10;;;1.40;62.30;;;;;;5115655;28;20023;-71
2022/02/28 10:21:43;;;;;;;13.40;5.85;;;1.20;59.80;;;;;;5117076;28;20027;-73
2022/02/28 10:24:30;;;;;;;9.18;4.50;;;1.50;62.80;;;;;;5116995;28;20039;-71
2022/02/28 10:26:57;;;;;;;9.20;4.22;;;1.60;63.30;;;;;;5116467;28;20493;-74
2022/02/28 10:29:25;;;;;;;7.35;4.80;;;1.50;61.00;;;;;;5116863;28;20069;-73
2022/02/28 10:31:51;;;;;;;6.90;3.95;;;1.50;62.10;;;;;;5116680;28;20393;-71
2022/02/28 10:34:25;;;;;;;2.95;2.70;;;1.60;62.10;;;;;;5116881;28;20441;-72
2022/02/28 10:36:59;;;;;;;5.68;3.97;;;1.60;59.20;;;;;;5116944;28;20393;-73
2022/02/28 10:39:39;;;;;;;3.80;2.67;;;1.60;58.90;;;;;;5116633;28;20023;-74
2022/02/28 10:42:15;;;;;;;6.78;3.70;;;1.30;56.40;;;;;;5116839;28;20068;-71
2022/02/28 10:44:42;;;;;;;4.32;3.00;;;1.20;58.70;;;;;;5116491;28;20105;-74
2022/02/28 10:47:13;;;;;;;3.05;2.75;;;1.10;58.20;;;;;;5116784;28;20039;-74
2022/02/28 10:49:40;;;;;;;4.15;3.22;;;0.70;58.40;;;;;;5116377;28;20055;-74
2022/02/28 10:52:11;;;;;;;5.22;3.05;;;0.70;59.10;;;;;;5115120;28;20035;-71
2022/02/28 10:54:42;;;;;;;7.63;3.63;;;0.70;59.40;;;;;;5116449;28;20027;-71
2022/02/28 10:57:09;;;;;;;6.50;3.45;;;0.90;60.20;;;;;;5116392;28;20033;-71
2022/02/28 10:59:54;;;;;;;4.07;3.25;;;1.00;59.50;;;;;;5116201;28;20046;-71
2022/02/28 11:02:33;;;;;;;6.55;3.67;;;1.10;58.40;;;;;;5116074;28;20020;-73
2022/02/28 11:05:13;;;;;;;6.72;3.13;;;1.20;59.30;;;;;;5114972;28;20031;-74
2022/02/28 11:07:41;;;;;;;5.30;3.35;;;0.90;59.20;;;;;;5116094;28;20015;-71
2022/02/28 11:10:08;;;;;;;6.55;3.65;;;0.70;59.80;;;;;;5116096;28;20027;-71
2022/02/28 11:12:34;;;;;;;5.25;3.60;;;0.50;59.40;;;;;;5115442;28;20039;-71
2022/02/28 11:15:07;;;;;;;5.97;3.40;;;0.50;58.60;;;;;;5115506;28;20020;-72
2022/02/28 11:17:35;;;;;;;3.13;2.85;;;0.70;59.30;;;;;;5115981;28;20020;-73
2022/02/28 11:20:08;;;;;;;4.68;3.47;;;1.10;57.60;;;;;;5115943;28;20020;-71
2022/02/28 11:22:35;;;;;;;2.47;2.25;;;1.40;56.30;;;;;;5115965;27;20050;-73
2022/02/28 11:25:02;;;;;;;3.53;2.63;;;1.30;53.80;;;;;;5115724;28;20051;-74
2022/02/28 11:27:29;;;;;;;7.75;2.00;;;1.50;53.30;;;;;;5115850;28;20031;-73
2022/02/28 11:30:08;;;;;;;2.58;2.33;;;1.60;53.20;;;;;;5115574;28;20408;-71
2022/02/28 11:32:34;;;;;;;4.00;2.42;;;1.40;52.50;;;;;;5114389;28;20392;-73
2022/02/28 11:35:37;;;;;;;4.18;1.95;;;1.10;51.80;;;;;;5115682;28;20419;-74
2022/02/28 11:38:09;;;;;;;3.53;2.67;;;0.90;52.00;;;;;;5115751;28;20042;-73
2022/02/28 11:40:35;;;;;;;3.33;2.50;;;0.80;53.40;;;;;;5115689;28;20020;-74
2022/02/28 11:43:08;;;;;;;2.45;2.10;;;1.10;53.90;;;;;;5115487;28;20027;-71
2022/02/28 11:45:34;;;;;;;4.18;2.47;;;1.30;52.80;;;;;;5114083;28;20024;-70
2022/02/28 11:48:29;;;;;;;2.72;1.95;;;1.30;52.00;;;;;;5115388;28;20026;-74
2022/02/28 11:50:58;;;;;;;3.65;2.08;;;1.30;51.00;;;;;;5115144;28;20035;-71
2022/02/28 11:53:51;;;;;;;6.13;3.08;;;1.30;50.90;;;;;;5115114;28;20480;-74
2022/02/28 11:56:16;;;;;;;2.72;2.50;;;1.20;51.30;;;;;;5115345;28;20027;-71
2022/02/28 11:58:54;;;;;;;2.42;2.00;;;1.30;50.90;;;;;;5114903;28;20024;-73
2022/02/28 12:01:32;;;;;;;2.95;2.53;;;1.40;51.40;;;;;;5115016;28;20024;-74
2022/02/28 12:04:06;;;;;;;9.32;2.17;;;1.40;50.10;;;;;;5114977;28;20396;-72
2022/02/28 12:06:58;;;;;;;2.13;1.85;;;1.60;50.30;;;;;;5113668;28;20023;-73
2022/02/28 12:09:33;;;;;;;5.57;3.72;;;2.00;50.00;;;;;;5115086;28;20125;-71
2022/02/28 12:12:20;;;;;;;3.88;2.65;;;2.00;49.10;;;;;;5113652;28;20039;-73
2022/02/28 12:14:59;;;;;;;5.78;2.38;;;2.20;48.70;;;;;;5113508;28;20029;-71
2022/02/28 12:17:35;;;;;;;5.10;2.50;;;2.00;48.00;;;;;;5114792;28;20016;-72
2022/02/28 12:20:20;;;;;;;3.63;1.75;;;2.20;48.90;;;;;;5114802;28;20019;-74
2022/02/28 12:23:09;;;;;;;2.38;1.63;;;2.20;48.60;;;;;;5113381;28;20028;-71
2022/02/28 12:25:39;;;;;;;2.38;2.15;;;2.10;48.00;;;;;;5114488;28;20389;-73
2022/02/28 12:28:35;;;;;;;2.63;1.88;;;2.10;47.80;;;;;;5114386;28;20031;-70
2022/02/28 12:31:06;;;;;;;2.10;1.90;;;2.20;47.60;;;;;;5114457;28;20035;-75
2022/02/28 12:33:34;;;;;;;4.45;2.40;;;2.20;47.60;;;;;;5114526;28;20028;-73
2022/02/28 12:36:09;;;;;;;3.65;2.53;;;2.30;48.70;;;;;;5113088;28;20509;-72